MOL Modern — V7VS6 — position and weather

sailwx.info

Track history (hours):
 
Tides and Currents Weather Stations Pressure Air Temp Water Temp Dewpoint Dewpoint Depression Visibility Wind Speed Wind Dir Waves Ship Positions

MOL Modern

Last reported at 2015-Feb-01 20:32 UTC. Time now 2015-Feb-01 21:13 UTC.
Position N 01°17' E 104°14'.

Length 302 m; draft 10.7 m.

Type: Ship (hazmat cat A). MMSI: 538004203.

Date/timePositionNaut miles runAvg speedWind from/ knotsBaromVisibWave heightAir tempDewpointWater temp
2015-Feb-01 20:32N 01°17' E 104°14'1313.7
2015-Feb-01 19:33N 01°14' E 104°01'10 9.7
2015-Feb-01 18:33N 01°15' E 103°51'1 1.1
2015-Feb-01 17:33N 01°16' E 103°50'0 0.0
2015-Feb-01 16:33N 01°16' E 103°50'0 0.0
2015-Feb-01 15:33N 01°16' E 103°50'0 0.0
2015-Feb-01 14:33N 01°16' E 103°50'0 0.0
2015-Feb-01 13:33N 01°16' E 103°50'0 0.0
2015-Feb-01 12:33N 01°16' E 103°50'0 0.0
2015-Feb-01 11:15N 01°16' E 103°50'0 0.0
2015-Feb-01 10:15N 01°16' E 103°50'0 0.0
2015-Feb-01 09:33N 01°16' E 103°50'0 0.0
2015-Feb-01 08:27N 01°16' E 103°50'0 0.0
2015-Feb-01 07:27N 01°16' E 103°50'0 0.0
2015-Feb-01 06:30N 01°16' E 103°50'0 0.0
2015-Feb-01 05:33N 01°16' E 103°50'0 0.0
2015-Feb-01 04:21N 01°16' E 103°50'0 0.0
2015-Feb-01 03:33N 01°16' E 103°50'0 0.0
2015-Feb-01 02:24N 01°16' E 103°50'0 0.0
2015-Feb-01 01:33N 01°16' E 103°50'0 0.0
2015-Feb-01 00:33N 01°16' E 103°50'1 0.7
2015-Jan-31 23:33N 01°16' E 103°51'3 2.6
2015-Jan-31 22:33N 01°13' E 103°52'1 0.6
2015-Jan-31 21:33N 01°14' E 103°53'4 3.6
2015-Jan-31 20:31N 01°11' E 103°50'8610.8
2015-Jan-31 12:33N 01°45' E 102°31'1412.6
2015-Jan-31 11:29N 01°51' E 102°19'1612.4
2015-Jan-31 10:12N 02°00' E 102°06'  
Track history (hours):
 
Tides and Currents Weather Stations Pressure Air Temp Water Temp Dewpoint Dewpoint Depression Visibility Wind Speed Wind Dir Waves Ship Positions

MOL Modern

Last reported at 2015-Feb-01 20:32 UTC. Time now 2015-Feb-01 21:13 UTC.
Position N 01°17' E 104°14'.

Length 302 m; draft 10.7 m.

Type: Ship (hazmat cat A). MMSI: 538004203.

Date/timePositionNaut miles runAvg speedWind from/ knotsBaromVisibWave heightAir tempDewpointWater temp
2015-Feb-01 20:32N 01°17' E 104°14'1313.7
2015-Feb-01 19:33N 01°14' E 104°01'10 9.7
2015-Feb-01 18:33N 01°15' E 103°51'1 1.1
2015-Feb-01 17:33N 01°16' E 103°50'0 0.0
2015-Feb-01 16:33N 01°16' E 103°50'0 0.0
2015-Feb-01 15:33N 01°16' E 103°50'0 0.0
2015-Feb-01 14:33N 01°16' E 103°50'0 0.0
2015-Feb-01 13:33N 01°16' E 103°50'0 0.0
2015-Feb-01 12:33N 01°16' E 103°50'0 0.0
2015-Feb-01 11:15N 01°16' E 103°50'0 0.0
2015-Feb-01 10:15N 01°16' E 103°50'0 0.0
2015-Feb-01 09:33N 01°16' E 103°50'0 0.0
2015-Feb-01 08:27N 01°16' E 103°50'0 0.0
2015-Feb-01 07:27N 01°16' E 103°50'0 0.0
2015-Feb-01 06:30N 01°16' E 103°50'0 0.0
2015-Feb-01 05:33N 01°16' E 103°50'0 0.0
2015-Feb-01 04:21N 01°16' E 103°50'0 0.0
2015-Feb-01 03:33N 01°16' E 103°50'0 0.0
2015-Feb-01 02:24N 01°16' E 103°50'0 0.0
2015-Feb-01 01:33N 01°16' E 103°50'0 0.0
2015-Feb-01 00:33N 01°16' E 103°50'1 0.7
2015-Jan-31 23:33N 01°16' E 103°51'3 2.6
2015-Jan-31 22:33N 01°13' E 103°52'1 0.6
2015-Jan-31 21:33N 01°14' E 103°53'4 3.6
2015-Jan-31 20:31N 01°11' E 103°50'8610.8
2015-Jan-31 12:33N 01°45' E 102°31'1412.6
2015-Jan-31 11:29N 01°51' E 102°19'1612.4
2015-Jan-31 10:12N 02°00' E 102°06'  

Dump ship's entire track history